createdAt,value
2022-09-27T00:01:09.665Z,15.90
2022-09-27T00:03:40.783Z,17.50
2022-09-27T00:06:08.765Z,16.70
2022-09-27T00:08:37.707Z,20.70
2022-09-27T00:11:10.315Z,24.50
2022-09-27T00:13:38.362Z,27.10
2022-09-27T00:16:06.708Z,30.10
2022-09-27T00:18:35.278Z,28.30
2022-09-27T00:21:08.377Z,31.10
2022-09-27T00:23:37.100Z,30.20
2022-09-27T00:26:06.857Z,30.00
2022-09-27T00:28:35.651Z,27.40
2022-09-27T00:31:04.041Z,29.00
2022-09-27T00:33:32.161Z,28.40
2022-09-27T00:36:07.236Z,29.30
2022-09-27T00:38:35.258Z,29.90
2022-09-27T00:41:03.391Z,30.00
2022-09-27T00:43:45.722Z,28.60
2022-09-27T00:46:19.518Z,28.40
2022-09-27T00:48:50.234Z,26.80
2022-09-27T00:51:18.343Z,27.90
2022-09-27T00:53:51.775Z,26.90
2022-09-27T00:56:24.790Z,29.00
2022-09-27T00:58:59.652Z,27.20
2022-09-27T01:01:30.535Z,27.70
2022-09-27T01:04:09.301Z,28.10
2022-09-27T01:06:38.484Z,28.40
2022-09-27T01:09:11.426Z,26.50
2022-09-27T01:11:54.694Z,27.30
2022-09-27T01:14:59.718Z,26.40
2022-09-27T01:17:52.507Z,27.20
2022-09-27T01:20:20.364Z,26.40
2022-09-27T01:22:51.681Z,26.80
2022-09-27T01:25:37.864Z,26.50
2022-09-27T01:28:20.943Z,24.80
2022-09-27T01:31:01.953Z,24.20
2022-09-27T01:33:47.670Z,26.30
2022-09-27T01:36:20.914Z,27.00
2022-09-27T01:39:07.047Z,24.90
2022-09-27T01:42:01.004Z,26.50
2022-09-27T01:44:39.567Z,26.20
2022-09-27T01:47:23.132Z,26.30
2022-09-27T01:50:07.781Z,25.90
2022-09-27T01:52:43.071Z,26.10
2022-09-27T01:55:15.056Z,24.90
2022-09-27T01:58:17.075Z,25.30
2022-09-27T02:00:51.010Z,25.50
2022-09-27T02:03:23.690Z,25.30
2022-09-27T02:06:31.345Z,27.20
2022-09-27T02:09:26.669Z,25.90
2022-09-27T02:12:10.243Z,27.20
2022-09-27T02:14:44.721Z,25.60
2022-09-27T02:17:33.623Z,25.50
2022-09-27T02:20:14.749Z,26.00
2022-09-27T02:22:56.121Z,24.60
2022-09-27T02:25:31.130Z,24.20
2022-09-27T02:30:51.149Z,24.40
2022-09-27T02:33:31.773Z,24.00
2022-09-27T02:38:29.134Z,25.70
2022-09-27T02:40:57.564Z,25.80
2022-09-27T02:43:30.467Z,22.80
2022-09-27T02:46:14.817Z,22.70
2022-09-27T02:49:04.771Z,22.00
2022-09-27T02:52:07.099Z,20.90
2022-09-27T02:54:50.939Z,20.20
2022-09-27T02:58:31.201Z,20.90
2022-09-27T03:02:01.945Z,20.10
2022-09-27T03:04:42.989Z,20.40
2022-09-27T03:07:12.773Z,19.60
2022-09-27T03:09:44.873Z,19.90
2022-09-27T03:12:13.040Z,19.20
2022-09-27T03:14:41.404Z,19.20
2022-09-27T03:17:29.277Z,18.30
2022-09-27T03:20:20.434Z,18.70
2022-09-27T03:22:53.752Z,17.00
2022-09-27T03:25:22.526Z,12.20
2022-09-27T03:27:51.400Z,12.50
2022-09-27T03:30:20.346Z,9.60
2022-09-27T03:32:49.096Z,11.00
2022-09-27T03:35:20.226Z,12.00
2022-09-27T03:37:48.286Z,11.00
2022-09-27T03:40:16.429Z,10.70
2022-09-27T03:42:49.487Z,10.00
2022-09-27T03:45:18.538Z,10.60
2022-09-27T03:47:47.214Z,10.00
2022-09-27T03:50:15.958Z,9.00
2022-09-27T03:52:44.379Z,9.00
2022-09-27T03:55:12.921Z,9.60
2022-09-27T03:57:46.672Z,8.00
2022-09-27T04:00:18.109Z,8.00
2022-09-27T04:02:46.373Z,7.00
2022-09-27T04:05:37.857Z,6.90
2022-09-27T04:08:12.353Z,6.40
2022-09-27T04:10:43.149Z,6.60
2022-09-27T04:13:11.420Z,7.20
2022-09-27T04:15:52.073Z,7.80
2022-09-27T04:18:40.785Z,8.30
2022-09-27T04:21:27.604Z,12.50
2022-09-27T04:23:56.541Z,14.10
2022-09-27T04:26:25.943Z,13.80
2022-09-27T04:29:00.647Z,14.40
2022-09-27T04:31:29.966Z,15.70
2022-09-27T04:34:18.277Z,17.70
2022-09-27T04:36:46.367Z,18.20
2022-09-27T04:39:17.492Z,17.60
2022-09-27T04:41:46.795Z,16.30
2022-09-27T04:44:14.978Z,14.60
2022-09-27T04:46:45.943Z,14.40
2022-09-27T04:49:14.242Z,14.50
2022-09-27T04:51:42.385Z,14.70
2022-09-27T04:54:10.995Z,14.40
2022-09-27T04:56:46.132Z,14.00
2022-09-27T04:59:14.107Z,10.00
2022-09-27T05:01:42.504Z,8.70
2022-09-27T05:04:33.728Z,9.80
2022-09-27T05:07:01.779Z,8.20
2022-09-27T05:09:36.113Z,10.30
2022-09-27T05:12:07.913Z,12.50
2022-09-27T05:15:09.693Z,13.10
2022-09-27T05:18:11.317Z,13.20
2022-09-27T05:20:59.398Z,14.20
2022-09-27T05:23:39.608Z,13.10
2022-09-27T05:26:08.088Z,14.20
2022-09-27T05:28:36.508Z,15.30
2022-09-27T05:31:05.816Z,14.50
2022-09-27T05:33:34.482Z,17.10
2022-09-27T05:36:21.475Z,17.40
2022-09-27T05:38:49.891Z,15.90
2022-09-27T05:41:18.310Z,19.10
2022-09-27T05:43:47.710Z,19.60
2022-09-27T05:46:16.947Z,13.50
2022-09-27T05:48:45.066Z,10.90
2022-09-27T05:51:15.007Z,12.90
2022-09-27T05:53:49.080Z,15.20
2022-09-27T05:56:25.133Z,13.40
2022-09-27T05:59:28.919Z,18.80
2022-09-27T06:02:15.548Z,12.30
2022-09-27T06:05:04.307Z,13.60
2022-09-27T06:07:35.413Z,13.60
2022-09-27T06:10:06.754Z,11.80
2022-09-27T06:12:38.588Z,13.10
2022-09-27T06:15:14.806Z,12.10
2022-09-27T06:17:46.965Z,11.30
2022-09-27T06:20:19.271Z,11.30
2022-09-27T06:22:50.445Z,10.40
2022-09-27T06:25:21.275Z,10.60
2022-09-27T06:28:13.316Z,11.30
2022-09-27T06:30:48.336Z,10.70
2022-09-27T06:33:28.365Z,10.00
2022-09-27T06:36:02.461Z,11.30
2022-09-27T06:38:31.227Z,11.50
2022-09-27T06:41:10.873Z,11.50
2022-09-27T06:44:06.110Z,11.90
2022-09-27T06:47:10.625Z,12.00
2022-09-27T06:49:58.901Z,11.50
2022-09-27T06:52:27.965Z,17.40
2022-09-27T06:54:56.430Z,12.80
2022-09-27T06:57:42.833Z,12.30
2022-09-27T07:00:24.931Z,12.10
2022-09-27T07:03:23.971Z,13.40
2022-09-27T07:06:07.939Z,11.70
2022-09-27T07:08:53.801Z,9.80
2022-09-27T07:11:23.865Z,11.30
2022-09-27T07:13:54.027Z,10.00
2022-09-27T07:16:22.301Z,9.70
2022-09-27T07:18:53.916Z,8.80
2022-09-27T07:21:22.058Z,9.20
2022-09-27T07:23:50.750Z,10.50
2022-09-27T07:26:19.133Z,11.70
2022-09-27T07:28:49.632Z,10.50
2022-09-27T07:31:18.907Z,8.70
2022-09-27T07:33:47.286Z,7.30
2022-09-27T07:36:16.380Z,8.40
2022-09-27T07:38:48.596Z,6.80
2022-09-27T07:41:22.087Z,6.30
2022-09-27T07:43:50.296Z,7.50
2022-09-27T07:46:20.430Z,6.40
2022-09-27T07:49:07.106Z,6.20
2022-09-27T07:51:56.542Z,5.20
2022-09-27T07:54:50.556Z,5.80
2022-09-27T07:57:37.379Z,5.30
2022-09-27T08:00:09.298Z,6.30
2022-09-27T08:02:42.477Z,11.40
2022-09-27T08:05:12.987Z,7.40
2022-09-27T08:07:41.729Z,6.90
2022-09-27T08:10:10.281Z,5.80
2022-09-27T08:12:39.886Z,5.80
2022-09-27T08:15:08.681Z,10.00
2022-09-27T08:17:54.986Z,6.00
2022-09-27T08:21:13.321Z,12.30
2022-09-27T08:24:17.783Z,6.10
2022-09-27T08:27:11.507Z,5.20
2022-09-27T08:29:52.484Z,6.60
2022-09-27T08:32:23.287Z,6.40
2022-09-27T08:34:52.557Z,6.10
2022-09-27T08:37:23.545Z,7.00
2022-09-27T08:39:52.114Z,5.40
2022-09-27T08:42:21.246Z,6.30
2022-09-27T08:45:04.326Z,5.60
2022-09-27T08:47:58.049Z,7.00
2022-09-27T08:50:47.455Z,6.40
2022-09-27T08:53:35.713Z,6.70
2022-09-27T08:56:09.466Z,6.90
2022-09-27T08:58:52.277Z,6.50
2022-09-27T09:01:28.866Z,5.80
2022-09-27T09:04:33.172Z,5.10
2022-09-27T09:07:17.140Z,4.40
2022-09-27T09:10:42.783Z,5.40
2022-09-27T09:13:17.886Z,4.30
2022-09-27T09:16:05.931Z,4.00
2022-09-27T09:19:05.873Z,6.10
2022-09-27T09:22:10.788Z,6.00
2022-09-27T09:24:48.543Z,4.10
2022-09-27T09:27:36.038Z,3.60
2022-09-27T09:30:25.582Z,2.80
2022-09-27T09:33:00.373Z,3.00
2022-09-27T09:35:38.147Z,3.70
2022-09-27T09:38:19.025Z,2.90
2022-09-27T09:41:06.900Z,4.90
2022-09-27T09:43:45.480Z,3.70
2022-09-27T09:46:27.810Z,3.40
2022-09-27T09:49:09.416Z,3.20
2022-09-27T09:51:49.835Z,3.60
2022-09-27T09:54:37.355Z,5.20
2022-09-27T09:57:18.177Z,9.80
2022-09-27T10:00:02.635Z,4.00
2022-09-27T10:02:43.209Z,2.90
2022-09-27T10:05:17.089Z,2.90
2022-09-27T10:07:46.617Z,2.90
2022-09-27T10:10:20.159Z,3.50
2022-09-27T10:12:57.378Z,5.00
2022-09-27T10:15:38.025Z,7.30
2022-09-27T10:18:18.110Z,32.10
2022-09-27T10:20:52.853Z,5.10
2022-09-27T10:24:18.066Z,4.20
2022-09-27T10:27:04.183Z,3.10
2022-09-27T10:29:39.255Z,3.50
2022-09-27T10:32:31.016Z,3.50
2022-09-27T10:35:37.830Z,2.90
2022-09-27T10:38:35.482Z,2.60
2022-09-27T10:41:25.036Z,3.20
2022-09-27T10:43:58.707Z,5.70
2022-09-27T10:46:33.590Z,3.40
2022-09-27T10:49:30.161Z,3.10
2022-09-27T10:52:08.277Z,3.60
2022-09-27T10:54:41.468Z,2.50
2022-09-27T10:57:14.558Z,3.10
2022-09-27T10:59:50.639Z,3.20
2022-09-27T11:02:58.172Z,3.10
2022-09-27T11:05:43.566Z,2.70
2022-09-27T11:08:30.171Z,2.50
2022-09-27T11:11:21.399Z,2.80
2022-09-27T11:14:25.310Z,2.70
2022-09-27T11:17:11.453Z,3.30
2022-09-27T11:20:02.017Z,3.40
2022-09-27T11:22:37.553Z,3.10
2022-09-27T11:25:07.089Z,2.30
2022-09-27T11:27:55.091Z,3.00
2022-09-27T11:30:32.579Z,3.30
2022-09-27T11:33:43.201Z,2.70
2022-09-27T11:36:49.510Z,2.70
2022-09-27T11:39:45.558Z,2.30
2022-09-27T11:42:52.030Z,2.30
2022-09-27T11:46:03.443Z,2.40
2022-09-27T11:48:54.138Z,4.00
2022-09-27T11:51:34.407Z,14.50
2022-09-27T11:54:40.019Z,9.20
2022-09-27T11:57:44.185Z,3.70
2022-09-27T12:00:12.617Z,2.70
2022-09-27T12:03:25.328Z,2.80
2022-09-27T12:06:19.479Z,2.40
2022-09-27T12:09:16.747Z,3.20
2022-09-27T12:12:12.370Z,3.20
2022-09-27T12:14:56.503Z,3.00
2022-09-27T12:17:34.471Z,2.50
2022-09-27T12:20:15.998Z,2.30
2022-09-27T12:22:59.065Z,2.60
2022-09-27T12:25:42.093Z,3.10
2022-09-27T12:28:43.935Z,3.10
2022-09-27T12:31:29.053Z,5.60
2022-09-27T12:34:23.513Z,2.30
2022-09-27T12:37:25.546Z,2.30
2022-09-27T12:40:15.607Z,3.50
2022-09-27T12:42:53.619Z,3.60
2022-09-27T12:45:53.575Z,5.70
2022-09-27T12:48:52.123Z,3.30
2022-09-27T12:51:23.131Z,2.30
2022-09-27T12:56:40.361Z,10.60
2022-09-27T12:59:33.353Z,2.70
2022-09-27T13:02:29.574Z,2.80
2022-09-27T13:05:11.181Z,2.90
2022-09-27T13:08:25.956Z,3.00
2022-09-27T13:11:30.728Z,2.80
2022-09-27T13:14:05.332Z,2.40
2022-09-27T13:16:48.253Z,2.60
2022-09-27T13:19:35.743Z,2.50
2022-09-27T13:22:28.252Z,2.40
2022-09-27T13:25:48.784Z,3.00
2022-09-27T13:28:39.254Z,9.50
2022-09-27T13:31:16.343Z,15.30
2022-09-27T13:33:49.723Z,10.70
2022-09-27T13:36:39.476Z,3.30
2022-09-27T13:39:22.129Z,6.00
2022-09-27T13:42:42.627Z,2.70
2022-09-27T13:45:28.554Z,2.50
2022-09-27T13:47:59.289Z,2.50
2022-09-27T13:50:52.380Z,2.30
2022-09-27T13:53:39.860Z,2.10
2022-09-27T13:56:37.090Z,2.90
2022-09-27T13:59:16.785Z,3.20
2022-09-27T14:02:21.642Z,2.80
2022-09-27T14:04:52.580Z,2.70
2022-09-27T14:07:36.147Z,2.50
2022-09-27T14:10:13.251Z,2.60
2022-09-27T14:12:45.404Z,2.80
2022-09-27T14:15:27.527Z,2.40
2022-09-27T14:17:59.382Z,5.40
2022-09-27T14:20:41.552Z,11.60
2022-09-27T14:23:22.296Z,3.30
2022-09-27T14:25:56.776Z,10.40
2022-09-27T14:28:31.143Z,4.00
2022-09-27T14:31:25.152Z,3.90
2022-09-27T14:34:13.925Z,4.70
2022-09-27T14:37:07.105Z,4.50
2022-09-27T14:39:44.036Z,2.90
2022-09-27T14:42:36.450Z,3.50
2022-09-27T14:47:52.444Z,3.00
2022-09-27T14:50:31.809Z,3.80
2022-09-27T14:53:02.473Z,25.70
2022-09-27T14:55:35.972Z,3.00
2022-09-27T14:58:04.991Z,6.20
2022-09-27T15:00:38.822Z,4.80
2022-09-27T15:03:10.503Z,3.70
2022-09-27T15:05:43.344Z,6.10
2022-09-27T15:08:15.404Z,3.90
2022-09-27T15:10:44.941Z,4.20
2022-09-27T15:13:19.335Z,44.90
2022-09-27T15:16:01.789Z,4.20
2022-09-27T15:18:37.837Z,4.30
2022-09-27T15:21:07.548Z,3.80
2022-09-27T15:23:40.400Z,3.30
2022-09-27T15:26:21.691Z,4.20
2022-09-27T15:28:54.880Z,3.90
2022-09-27T15:31:37.220Z,4.40
2022-09-27T15:34:18.899Z,5.50
2022-09-27T15:37:03.834Z,3.40
2022-09-27T15:39:36.016Z,4.40
2022-09-27T15:42:17.370Z,3.90
2022-09-27T15:44:57.949Z,4.10
2022-09-27T15:47:34.630Z,3.20
2022-09-27T15:50:15.241Z,5.10
2022-09-27T15:52:51.041Z,17.30
2022-09-27T15:55:25.389Z,4.10
2022-09-27T15:58:02.245Z,3.60
2022-09-27T16:00:30.678Z,3.80
2022-09-27T16:03:00.418Z,4.00
2022-09-27T16:05:30.128Z,4.70
2022-09-27T16:08:00.142Z,4.40
2022-09-27T16:10:38.373Z,3.80
2022-09-27T16:13:08.627Z,3.50
2022-09-27T16:15:37.939Z,4.80
2022-09-27T16:18:06.367Z,4.90
2022-09-27T16:20:34.953Z,6.80
2022-09-27T16:23:03.776Z,5.80
2022-09-27T16:25:40.544Z,4.80
2022-09-27T16:28:12.361Z,4.50
2022-09-27T16:30:41.236Z,4.50
2022-09-27T16:33:09.222Z,5.10
2022-09-27T16:35:41.696Z,5.50
2022-09-27T16:38:10.660Z,5.20
2022-09-27T16:40:42.153Z,4.80
2022-09-27T16:43:10.491Z,5.30
2022-09-27T16:45:38.560Z,5.90
2022-09-27T16:48:07.095Z,5.30
2022-09-27T16:50:53.708Z,5.40
2022-09-27T16:53:21.835Z,4.50
2022-09-27T16:55:50.036Z,4.70
2022-09-27T16:58:21.417Z,4.30
2022-09-27T17:00:49.571Z,5.00
2022-09-27T17:03:20.540Z,4.30
2022-09-27T17:05:48.611Z,3.40
2022-09-27T17:08:17.348Z,4.20
2022-09-27T17:10:45.745Z,3.90
2022-09-27T17:13:14.280Z,4.60
2022-09-27T17:15:42.285Z,4.00
2022-09-27T17:18:11.125Z,3.80
2022-09-27T17:20:39.283Z,5.50
2022-09-27T17:23:07.335Z,6.40
2022-09-27T17:25:35.529Z,6.20
2022-09-27T17:28:06.177Z,7.10
2022-09-27T17:30:35.397Z,8.80
2022-09-27T17:33:05.669Z,7.50
2022-09-27T17:35:36.847Z,4.50
2022-09-27T17:38:05.295Z,4.90
2022-09-27T17:40:36.478Z,4.80
2022-09-27T17:43:06.846Z,12.10
2022-09-27T17:45:34.785Z,7.10
2022-09-27T17:48:32.159Z,9.90
2022-09-27T17:51:00.376Z,6.40
2022-09-27T17:53:32.007Z,4.40
2022-09-27T17:56:03.034Z,9.10
2022-09-27T17:58:31.278Z,6.00
2022-09-27T18:01:04.593Z,6.40
2022-09-27T18:03:35.822Z,9.50
2022-09-27T18:06:08.132Z,7.50
2022-09-27T18:08:36.770Z,6.80
2022-09-27T18:11:11.972Z,6.40
2022-09-27T18:13:42.017Z,5.60
2022-09-27T18:16:13.289Z,5.90
2022-09-27T18:18:43.293Z,6.90
2022-09-27T18:21:15.460Z,6.90
2022-09-27T18:23:44.675Z,69.90
2022-09-27T18:26:12.976Z,8.20
2022-09-27T18:28:42.563Z,7.40
2022-09-27T18:31:13.646Z,7.00
2022-09-27T18:33:44.724Z,6.30
2022-09-27T18:36:14.556Z,6.60
2022-09-27T18:38:43.124Z,6.60
2022-09-27T18:41:17.154Z,6.60
2022-09-27T18:43:47.340Z,5.90
2022-09-27T18:46:34.981Z,6.60
2022-09-27T18:49:07.304Z,28.70
2022-09-27T18:51:38.954Z,9.80
2022-09-27T18:54:11.777Z,13.70
2022-09-27T18:56:41.190Z,13.10
2022-09-27T18:59:10.447Z,25.60
2022-09-27T19:01:42.332Z,9.30
2022-09-27T19:04:13.042Z,6.70
2022-09-27T19:06:42.105Z,7.00
2022-09-27T19:09:11.714Z,6.40
2022-09-27T19:11:40.404Z,2.80
2022-09-27T19:14:19.119Z,2.80
2022-09-27T19:16:48.359Z,2.40
2022-09-27T19:19:18.137Z,2.30
2022-09-27T19:21:47.681Z,3.40
2022-09-27T19:24:18.229Z,2.50
2022-09-27T19:26:46.485Z,2.70
2022-09-27T19:29:14.953Z,2.00
2022-09-27T19:31:44.522Z,2.50
2022-09-27T19:34:12.929Z,2.80
2022-09-27T19:36:41.170Z,2.50
2022-09-27T19:39:09.282Z,3.00
2022-09-27T19:41:38.288Z,2.40
2022-09-27T19:44:07.470Z,2.90
2022-09-27T19:46:36.148Z,2.30
2022-09-27T19:49:04.465Z,1.60
2022-09-27T19:51:33.588Z,1.80
2022-09-27T19:54:01.839Z,2.40
2022-09-27T19:56:30.080Z,2.00
2022-09-27T19:58:58.027Z,1.90
2022-09-27T20:01:28.898Z,2.20
2022-09-27T20:04:00.050Z,2.00
2022-09-27T20:06:28.741Z,1.70
2022-09-27T20:08:56.761Z,2.10
2022-09-27T20:11:27.613Z,1.90
2022-09-27T20:13:55.770Z,1.50
2022-09-27T20:16:25.514Z,1.60
2022-09-27T20:18:56.200Z,2.00
2022-09-27T20:21:27.116Z,2.10
2022-09-27T20:23:58.977Z,1.90
2022-09-27T20:26:28.689Z,1.40
2022-09-27T20:28:59.197Z,3.00
2022-09-27T20:31:37.223Z,2.40
2022-09-27T20:34:13.183Z,2.70
2022-09-27T20:36:45.323Z,2.70
2022-09-27T20:39:16.802Z,3.60
2022-09-27T20:41:46.525Z,2.90
2022-09-27T20:44:19.933Z,1.90
2022-09-27T20:46:50.432Z,2.70
2022-09-27T20:49:20.040Z,2.00
2022-09-27T20:51:49.330Z,2.90
2022-09-27T20:54:18.490Z,4.50
2022-09-27T20:56:49.202Z,2.60
2022-09-27T20:59:23.288Z,1.90
2022-09-27T21:01:52.603Z,1.90
2022-09-27T21:04:22.508Z,2.40
2022-09-27T21:06:51.719Z,2.40
2022-09-27T21:09:20.573Z,3.10
2022-09-27T21:11:52.049Z,2.50
2022-09-27T21:14:20.473Z,2.10
2022-09-27T21:16:49.260Z,2.10
2022-09-27T21:19:17.466Z,1.70
2022-09-27T21:21:45.982Z,1.60
2022-09-27T21:24:14.326Z,1.60
2022-09-27T21:26:42.372Z,1.80
2022-09-27T21:29:13.663Z,2.00
2022-09-27T21:31:42.095Z,2.60
2022-09-27T21:34:11.344Z,2.20
2022-09-27T21:36:40.919Z,1.70
2022-09-27T21:39:10.339Z,1.50
2022-09-27T21:41:39.930Z,1.80
2022-09-27T21:44:10.218Z,1.80
2022-09-27T21:46:42.104Z,1.90
2022-09-27T21:49:11.284Z,2.10
2022-09-27T21:51:41.951Z,2.00
2022-09-27T21:54:16.864Z,2.00
2022-09-27T21:56:45.068Z,1.80
2022-09-27T21:59:15.461Z,2.20
2022-09-27T22:01:45.979Z,2.20
2022-09-27T22:04:16.093Z,1.90
2022-09-27T22:06:44.587Z,2.20
2022-09-27T22:09:18.841Z,2.10
2022-09-27T22:11:48.310Z,2.00
2022-09-27T22:14:18.187Z,2.10
2022-09-27T22:16:47.642Z,2.10
2022-09-27T22:19:16.892Z,2.00
2022-09-27T22:21:46.241Z,2.30
2022-09-27T22:24:17.242Z,2.30
2022-09-27T22:26:48.274Z,3.20
2022-09-27T22:29:16.813Z,3.20
2022-09-27T22:31:44.986Z,3.40
2022-09-27T22:34:18.354Z,2.60
2022-09-27T22:36:46.974Z,2.30
2022-09-27T22:39:15.087Z,2.10
2022-09-27T22:41:43.608Z,1.90
2022-09-27T22:44:11.724Z,2.30
2022-09-27T22:46:39.970Z,1.70
2022-09-27T22:49:10.287Z,2.50
2022-09-27T22:51:38.561Z,2.30
2022-09-27T22:54:06.749Z,2.50
2022-09-27T22:56:34.814Z,2.40
2022-09-27T22:59:03.184Z,2.50
2022-09-27T23:01:31.871Z,2.00
2022-09-27T23:03:59.970Z,2.00
2022-09-27T23:06:28.106Z,2.50
2022-09-27T23:08:58.375Z,2.60
2022-09-27T23:11:26.721Z,2.80
2022-09-27T23:13:54.677Z,2.60
2022-09-27T23:16:24.896Z,2.70
2022-09-27T23:18:56.852Z,2.70
2022-09-27T23:21:27.278Z,2.20
2022-09-27T23:23:59.916Z,2.30
2022-09-27T23:26:29.437Z,2.40
2022-09-27T23:29:02.658Z,2.60
2022-09-27T23:31:32.619Z,2.80
2022-09-27T23:34:04.413Z,3.40
2022-09-27T23:36:33.399Z,3.00
2022-09-27T23:39:01.699Z,3.00
2022-09-27T23:41:29.759Z,2.30
2022-09-27T23:43:58.224Z,3.90
2022-09-27T23:46:26.592Z,2.20
2022-09-27T23:48:54.881Z,2.40
2022-09-27T23:51:22.879Z,2.30
2022-09-27T23:53:51.244Z,2.50
2022-09-27T23:56:19.152Z,2.70
2022-09-27T23:58:47.393Z,2.70
